LGIR Airport Information

Runway Information
Runway 09 Length 8800 ft width 148 ft
Elevation 78 ft Threshold 1565 ft Heading 95
Runway 27 Length 8800 ft Width 148 ft
Elevation 82 ft Threshold 0 ft Heading 275
Runway 12 Length 5138 ft width 164 ft
Elevation 57 ft Threshold 499 ft Heading 126
Runway 30 Length 5138 ft Width 164 ft
Elevation 115 ft Threshold 0 ft Heading 306
Runway 18 Length 2559 ft width 131 ft
Elevation 78 ft Threshold 0 ft Heading 180
Runway 36 Length 2559 ft Width 131 ft
Elevation 115 ft Threshold 328 ft Heading 0
Airport Frequencies
Type A/G Name KAZANTZAKI Frequency 563.7 MHZ
Type APP Name IRAKLION A Frequency 123.975 MHZ
Type ATIS Name ATIS Frequency 127.55 MHZ
Type DIR Name IRAKLION D Frequency 118.025 MHZ
Type GND Name KAZANTZAKI Frequency 121.7 MHZ
Type TRSA Name IRAKLION R Frequency 123.975 MHZ
Type TWR Name KAZANTZAKI Frequency 120.85 MHZ
Airport Navaids
Type NDB Name Iraklion Frequency 431 KHZ
Type VOR-DME Name Iraklion Frequency 108800 KHZ
Type TACAN Name Iraklion Frequency 108300 KHZ
Airport Weather Information & NOTAM
ADDS - METARS form results

(1211 UTC 24 July 2021)
Data provider http://aviationweather.gov/metar/data/
 
METAR text: LGIR 241150Z 32019KT 9999 FEW025 28/20 Q1010 NOSIG
Conditions at: LGIR (IRAKLION (CIV/AF, GR) observed 1150 UTC 24 July 2021
Temperature: 28.0°C (82°F)
Dewpoint: 20.0°C (68°F) [RH = 62%]
Pressure (altimeter): 29.82 inches Hg (1010.0 mb)
Winds: from the NW (320 degrees) at 22 MPH (19 knots; 9.8 m/s)
Visibility: 6 or more miles (10+ km)
Ceiling: at least 12,000 feet AGL
Clouds: few clouds at 2500 feet AGL
Weather: no significant weather observed at this time

METAR text: LGIR 241120Z 32018KT 9999 FEW025 28/20 Q1010 NOSIG
Conditions at: LGIR (IRAKLION (CIV/AF, GR) observed 1120 UTC 24 July 2021
Temperature: 28.0°C (82°F)
Dewpoint: 20.0°C (68°F) [RH = 62%]
Pressure (altimeter): 29.82 inches Hg (1010.0 mb)
Winds: from the NW (320 degrees) at 21 MPH (18 knots; 9.3 m/s)
Visibility: 6 or more miles (10+ km)
Ceiling: at least 12,000 feet AGL
Clouds: few clouds at 2500 feet AGL
Weather: no significant weather observed at this time

Forecast for: LGIR (IRAKLION (CIV/AF, GR)
Text: TAF LGIR 241100Z 2412/2512 32018KT 9999 FEW025
Forecast period: 1200 UTC 24 July 2021 to 1200 UTC 25 July 2021
Forecast type: FROM: standard forecast or significant change
Winds: from the NW (320 degrees) at 21 MPH (18 knots; 9.3 m/s)
Visibility: 6 or more miles (10+ km)
Ceiling: at least 12,000 feet AGL
Clouds: few clouds at 2500 feet AGL
Weather: no significant weather forecast for this period
Text: TEMPO 2506/2512 32020G30KT
Forecast period: 0600 to 1200 UTC 25 July 2021
Forecast type: TEMPORARY: The following changes expected for less than half the time period
Winds: from the NW (320 degrees) at 23 MPH (20 knots; 10.3 m/s)
gusting to 34 MPH (30 knots; 15.4 m/s)
Visibility: missing
Ceiling: unknown
Clouds: missing
Weather: no significant weather forecast for this period